Time,TemperatureF,DewpointF,PressureIn,WindDirection,WindDirectionDegrees,WindSpeedMPH,WindSpeedGustMPH,Humidity,HourlyPrecipIn,Conditions,Clouds,dailyrainin,SoftwareType,DateUTC
2013-08-10 00:02:00,48.0,-99.9,-100.00,NNE,13,1.0,1.0,-999,-99.99,,,-99.99,,2013-08-10 06:02:00,
2013-08-10 00:11:00,48.0,-99.9,-100.00,NNE,13,1.0,1.0,-999,-99.99,,,-99.99,,2013-08-10 06:11:00,
2013-08-10 00:22:00,48.0,-99.9,-100.00,NNE,13,1.0,1.0,-999,-99.99,,,-99.99,,2013-08-10 06:22:00,
2013-08-10 01:13:00,48.0,-99.9,-100.00,NNE,32,2.0,2.0,-999,-99.99,,,-99.99,,2013-08-10 07:13:00,
2013-08-10 01:22:00,48.0,-99.9,-100.00,NNE,32,2.0,2.0,-999,-99.99,,,-99.99,,2013-08-10 07:22:00,
2013-08-10 02:12:00,46.0,-99.9,-100.00,NE,50,1.0,1.0,-999,-99.99,,,-99.99,,2013-08-10 08:12:00,
2013-08-10 02:22:00,46.0,-99.9,-100.00,North,7,1.0,1.0,-999,-99.99,,,-99.99,,2013-08-10 08:22:00,
2013-08-10 02:43:00,46.0,-99.9,-100.00,East,84,1.0,1.0,-999,-99.99,,,-99.99,,2013-08-10 08:43:00,
2013-08-10 03:32:00,45.0,-99.9,-100.00,East,91,2.0,2.0,-999,-99.99,,,-99.99,,2013-08-10 09:32:00,
2013-08-10 03:43:00,45.0,-99.9,-100.00,East,91,2.0,2.0,-999,-99.99,,,-99.99,,2013-08-10 09:43:00,
2013-08-10 04:33:00,45.0,-99.9,-100.00,North,9,1.0,1.0,-999,-99.99,,,-99.99,,2013-08-10 10:33:00,
2013-08-10 04:44:00,45.0,-99.9,-100.00,North,9,1.0,1.0,-999,-99.99,,,-99.99,,2013-08-10 10:44:00,
2013-08-10 05:33:00,43.0,-99.9,-100.00,NE,39,2.0,2.0,-999,-99.99,,,-99.99,,2013-08-10 11:33:00,
2013-08-10 05:43:00,43.0,-99.9,-100.00,NE,39,2.0,2.0,-999,-99.99,,,-99.99,,2013-08-10 11:43:00,
2013-08-10 06:42:00,43.0,-99.9,-100.00,NNE,24,0.0,1.0,-999,-99.99,,,-99.99,,2013-08-10 12:42:00,
2013-08-10 07:32:00,43.0,-99.9,-100.00,NNE,20,2.0,2.0,-999,-99.99,,,-99.99,,2013-08-10 13:32:00,
2013-08-10 07:43:00,43.0,-99.9,-100.00,NNE,20,2.0,2.0,-999,-99.99,,,-99.99,,2013-08-10 13:43:00,
2013-08-10 08:43:00,50.0,-99.9,-100.00,NE,44,2.0,3.0,-999,-99.99,,,-99.99,,2013-08-10 14:43:00,
2013-08-10 09:43:00,59.0,-99.9,-100.00,NNE,31,2.0,4.0,-999,-99.99,,,-99.99,,2013-08-10 15:43:00,
2013-08-10 11:43:00,66.0,-99.9,-100.00,ENE,70,9.0,11.0,-999,-99.99,,,-99.99,,2013-08-10 17:43:00,
2013-08-10 12:32:00,68.0,-99.9,-100.00,ENE,72,7.0,10.0,-999,-99.99,,,-99.99,,2013-08-10 18:32:00,
2013-08-10 12:44:00,68.0,-99.9,-100.00,ENE,72,7.0,10.0,-999,-99.99,,,-99.99,,2013-08-10 18:44:00,
2013-08-10 13:44:00,72.0,-99.9,-100.00,NE,55,0.0,6.0,-999,-99.99,,,-99.99,,2013-08-10 19:44:00,
2013-08-10 14:22:00,70.0,-99.9,-100.00,NNE,20,10.0,12.0,-999,-99.99,,,-99.99,,2013-08-10 20:22:00,
2013-08-10 14:33:00,70.0,-99.9,-100.00,NNE,20,10.0,12.0,-999,-99.99,,,-99.99,,2013-08-10 20:33:00,
2013-08-10 14:43:00,70.0,-99.9,-100.00,NNE,20,10.0,12.0,-999,-99.99,,,-99.99,,2013-08-10 20:43:00,
2013-08-10 15:22:00,70.0,-99.9,-100.00,NNE,21,5.0,6.0,-999,-99.99,,,-99.99,,2013-08-10 21:22:00,
2013-08-10 15:32:00,70.0,-99.9,-100.00,NNE,21,5.0,6.0,-999,-99.99,,,-99.99,,2013-08-10 21:32:00,
2013-08-10 15:43:00,70.0,-99.9,-100.00,NNE,21,5.0,6.0,-999,-99.99,,,-99.99,,2013-08-10 21:43:00,
2013-08-10 16:22:00,72.0,-99.9,-100.00,NNE,28,6.0,7.0,-999,-99.99,,,-99.99,,2013-08-10 22:22:00,
2013-08-10 16:32:00,72.0,-99.9,-100.00,NNE,28,6.0,7.0,-999,-99.99,,,-99.99,,2013-08-10 22:32:00,
2013-08-10 16:40:00,70.0,-99.9,-100.00,NE,40,4.0,6.0,-999,-99.99,,,-99.99,,2013-08-10 22:40:00,
2013-08-10 16:43:00,72.0,-99.9,-100.00,NNE,28,6.0,7.0,-999,-99.99,,,-99.99,,2013-08-10 22:43:00,
2013-08-10 17:22:00,70.0,-99.9,-100.00,NE,40,4.0,6.0,-999,-99.99,,,-99.99,,2013-08-10 23:22:00,
2013-08-10 17:33:00,70.0,-99.9,-100.00,NE,40,4.0,6.0,-999,-99.99,,,-99.99,,2013-08-10 23:33:00,
2013-08-10 17:40:00,70.0,-99.9,-100.00,North,7,8.0,12.0,-999,-99.99,,,-99.99,,2013-08-10 23:40:00,
2013-08-10 18:22:00,70.0,-99.9,-100.00,North,7,8.0,12.0,-999,-99.99,,,-99.99,,2013-08-11 00:22:00,
2013-08-10 18:32:00,70.0,-99.9,-100.00,North,7,8.0,12.0,-999,-99.99,,,-99.99,,2013-08-11 00:32:00,
2013-08-10 18:40:00,70.0,-99.9,-100.00,ENE,61,9.0,10.0,-999,-99.99,,,-99.99,,2013-08-11 00:40:00,
2013-08-10 19:22:00,70.0,-99.9,-100.00,ENE,61,9.0,10.0,-999,-99.99,,,-99.99,,2013-08-11 01:22:00,
2013-08-10 19:32:00,70.0,-99.9,-100.00,ENE,61,9.0,10.0,-999,-99.99,,,-99.99,,2013-08-11 01:32:00,
2013-08-10 19:40:00,64.0,-99.9,-100.00,East,87,0.0,0.0,-999,-99.99,,,-99.99,,2013-08-11 01:40:00,
2013-08-10 20:22:00,64.0,-99.9,-100.00,East,87,0.0,0.0,-999,-99.99,,,-99.99,,2013-08-11 02:22:00,
2013-08-10 20:33:00,64.0,-99.9,-100.00,East,87,0.0,0.0,-999,-99.99,,,-99.99,,2013-08-11 02:33:00,
2013-08-10 20:40:00,59.0,-99.9,-100.00,NE,36,3.0,4.0,-999,-99.99,,,-99.99,,2013-08-11 02:40:00,
2013-08-10 21:30:00,59.0,-99.9,-100.00,NE,36,3.0,4.0,-999,-99.99,,,-99.99,,2013-08-11 03:30:00,
2013-08-10 21:37:00,59.0,-99.9,-100.00,NE,36,3.0,4.0,-999,-99.99,,,-99.99,,2013-08-11 03:37:00,
2013-08-10 21:40:00,59.0,-99.9,-100.00,NNE,16,1.0,3.0,-999,-99.99,,,-99.99,,2013-08-11 03:40:00,
2013-08-10 22:15:00,57.0,-99.9,-100.00,NNE,13,0.0,0.0,-999,-99.99,,,-99.99,,2013-08-11 04:15:00,
2013-08-10 22:22:00,59.0,-99.9,-100.00,NNE,16,1.0,3.0,-999,-99.99,,,-99.99,,2013-08-11 04:22:00,
2013-08-10 22:32:00,59.0,-99.9,-100.00,NNE,16,1.0,3.0,-999,-99.99,,,-99.99,,2013-08-11 04:32:00,
2013-08-10 22:53:00,57.0,-99.9,-100.00,North,6,0.0,0.0,-999,-99.99,,,-99.99,,2013-08-11 04:53:00,
2013-08-10 23:02:00,57.0,-99.9,-100.00,NNE,13,0.0,0.0,-999,-99.99,,,-99.99,,2013-08-11 05:02:00,
2013-08-10 23:15:00,55.0,-99.9,-100.00,NNE,19,2.0,3.0,-999,-99.99,,,-99.99,,2013-08-11 05:15:00,
2013-08-10 23:59:00,55.0,-99.9,-100.00,NNE,19,2.0,3.0,-999,-99.99,,,-99.99,,2013-08-11 05:59:00,